Terminal Aerodrome Forecast
Issued by NWS

Home | Current Version | Previous Version | Text Only | Print | Product List | Glossary On
Versions: 1 2 3 4 5 6 7 8 9 10 11 12 13 14 15 16 17 18 19 20 21 22 23 24 25 26 27 28 29 30 31 32
000
FTAK31 PANC 061736
TAFAHO
TAF
PAHO 061736Z 0618/0718 20007KT P6SM FEW025 BKN035
     FM062000 22008KT P6SM SCT035 BKN120
     FM070000 22010G16KT P6SM VCSH BKN035
     FM070400 20012G18KT P6SM -RA BKN030
     FM070700 18014G20KT 5SM -RA BR OVC020
     FM071500 24012G20KT P6SM -SHRA SCT025 BKN035=

USA.gov is the U.S. government's official web portal to all federal, state and local government web resources and services.